KCMH/CMH METAR and TAF weather

Enter ICAO airport designator
Station Type Date Time Source
KCMH METAR 2019/10/23 12:51 UTC NOAA

KCMH 231251Z 24008KT 10SM CLR 07/01 A3005 RMK AO2 SLP179 T00720011


Station Type Date Time Source
KCMH Decoded METAR 2019/10/23 12:51 UTC NOAA

PORT COLUMBUS INTERNATIONAL AIRPORT, OH, United States (KCMH) 40-00N 82-53W 247M
Oct 23, 2019 - 08:51 AM EDT / 2019.10.23 1251 UTC
Wind: from the WSW (240 degrees) at 9 MPH (8 KT):0
Visibility: 10 mile(s):0
Sky conditions: clear
Temperature: 45.0 F (7.2 C)
Dew Point: 34.0 F (1.1 C)
Relative Humidity: 65%
Pressure (altimeter): 30.05 in. Hg (1017 hPa)
ob: KCMH 231251Z 24008KT 10SM CLR 07/01 A3005 RMK AO2 SLP179 T00720011
cycle: 13

Station Type Date Time Source
KCMH TAF 2019/10/23 12:33 UTC NOAA

TAF KCMH 231131Z 2312/2412 23009KT P6SM SKC
FM231500 23014G23KT P6SM SKC
FM232300 20011KT P6SM FEW090 FEW250
FM240200 18007KT P6SM SCT090 SCT250 WS020/23040KT

Example: see airport list